Time;durP1;ratioP1;P1;durP2;ratioP2;P2;SDS_P1;SDS_P2;PMS_P1;PMS_P2;Temp;Humidity;BMP_temperature;BMP_pressure;BME280_temperature;BME280_humidity;BME280_pressure;Samples;Min_cycle;Max_cycle;Signal;HPM_P1;HPM_P2
2022/11/28 00:01:12;;;;;;;27.38;15.65;;;6.10;99.90;;;;;;4990009;28;20123;-74
2022/11/28 00:03:37;;;;;;;20.88;14.93;;;6.10;99.90;;;;;;4995753;28;20133;-75
2022/11/28 00:06:05;;;;;;;17.27;13.18;;;6.10;99.90;;;;;;4990881;28;20169;-74
2022/11/28 00:08:31;;;;;;;18.80;14.23;;;6.10;99.90;;;;;;4989792;28;20052;-74
2022/11/28 00:10:57;;;;;;;19.95;14.43;;;6.20;99.90;;;;;;4987425;28;20077;-74
2022/11/28 00:13:23;;;;;;;19.85;14.43;;;6.20;99.90;;;;;;4989948;28;20080;-74
2022/11/28 00:16:00;;;;;;;22.70;15.02;;;6.20;99.90;;;;;;4988604;28;20156;-74
2022/11/28 00:18:26;;;;;;;25.50;15.45;;;6.20;99.90;;;;;;4991932;28;20052;-74
2022/11/28 00:20:51;;;;;;;21.00;14.32;;;6.20;99.90;;;;;;5010459;28;20045;-75
2022/11/28 00:23:17;;;;;;;22.92;14.10;;;6.20;99.90;;;;;;4978164;28;20076;-74
2022/11/28 00:25:44;;;;;;;21.02;14.27;;;6.20;99.90;;;;;;4994528;28;20049;-75
2022/11/28 00:28:09;;;;;;;21.23;14.02;;;6.20;99.90;;;;;;4992994;28;20069;-75
2022/11/28 00:30:36;;;;;;;20.98;15.48;;;6.30;99.90;;;;;;4992086;28;20138;-74
2022/11/28 00:33:02;;;;;;;21.30;14.50;;;6.20;99.90;;;;;;4993786;28;20046;-74
2022/11/28 00:35:28;;;;;;;28.70;16.08;;;6.20;99.90;;;;;;4988114;28;20045;-75
2022/11/28 00:37:54;;;;;;;21.35;14.55;;;6.20;99.90;;;;;;4993954;28;20049;-74
2022/11/28 00:40:20;;;;;;;24.48;14.27;;;6.20;99.90;;;;;;4993981;28;20041;-74
2022/11/28 00:42:46;;;;;;;19.70;14.80;;;6.30;99.90;;;;;;4991810;28;20077;-75
2022/11/28 00:45:11;;;;;;;19.08;14.65;;;6.20;99.90;;;;;;4993737;28;20124;-74
2022/11/28 00:47:37;;;;;;;22.80;15.90;;;6.20;99.90;;;;;;4993038;28;20053;-74
2022/11/28 00:50:03;;;;;;;18.58;14.65;;;6.20;99.90;;;;;;4989645;28;20054;-74
2022/11/28 00:52:31;;;;;;;19.70;15.95;;;6.30;99.90;;;;;;4985018;28;20046;-75
2022/11/28 00:54:57;;;;;;;18.27;13.90;;;6.20;99.90;;;;;;4988401;28;20042;-74
2022/11/28 00:57:23;;;;;;;22.70;16.70;;;6.20;99.90;;;;;;4990495;28;20066;-74
2022/11/28 00:59:48;;;;;;;20.90;14.98;;;6.30;99.90;;;;;;4990446;28;20093;-74
2022/11/28 01:02:14;;;;;;;18.52;14.30;;;6.30;99.90;;;;;;4989940;28;20500;-75
2022/11/28 01:04:40;;;;;;;21.58;16.15;;;6.30;99.90;;;;;;5007161;28;20102;-74
2022/11/28 01:07:05;;;;;;;20.35;15.07;;;6.30;99.90;;;;;;4988876;28;20112;-74
2022/11/28 01:09:31;;;;;;;20.00;13.77;;;6.30;99.90;;;;;;4984710;28;20050;-74
2022/11/28 01:11:57;;;;;;;24.05;15.70;;;6.30;99.90;;;;;;4983902;28;20054;-74
2022/11/28 01:14:24;;;;;;;19.40;15.52;;;6.30;99.90;;;;;;4984345;28;20042;-74
2022/11/28 01:16:50;;;;;;;19.65;15.50;;;6.30;99.90;;;;;;5006023;28;20042;-74
2022/11/28 01:19:16;;;;;;;22.58;13.80;;;6.30;99.90;;;;;;5006485;28;20108;-74
2022/11/28 01:21:42;;;;;;;23.02;15.55;;;6.30;99.90;;;;;;4990202;28;20525;-74
2022/11/28 01:24:08;;;;;;;20.35;15.13;;;6.30;99.90;;;;;;5006338;28;20653;-74
2022/11/28 01:26:34;;;;;;;23.75;16.23;;;6.30;99.90;;;;;;4982093;28;20097;-74
2022/11/28 01:29:00;;;;;;;26.77;16.10;;;6.30;99.90;;;;;;4983777;28;20499;-74
2022/11/28 01:31:28;;;;;;;20.05;16.10;;;6.30;99.90;;;;;;4989710;28;20487;-74
2022/11/28 01:33:54;;;;;;;;;;;6.30;99.90;;;;;;4990525;28;20090;-74
2022/11/28 01:36:21;;;;;;;22.20;14.90;;;6.30;99.90;;;;;;4989336;28;19948;-74
2022/11/28 01:38:47;;;;;;;22.98;16.17;;;6.30;99.90;;;;;;5005861;28;20050;-74
2022/11/28 01:41:15;;;;;;;26.55;15.40;;;6.30;99.90;;;;;;5006533;28;20046;-74
2022/11/28 01:44:05;;;;;;;16.90;8.15;;;6.30;99.90;;;;;;5003151;28;20050;-74
2022/11/28 01:46:32;;;;;;;21.50;16.13;;;6.30;99.90;;;;;;5004187;28;20061;-74
2022/11/28 01:49:04;;;;;;;26.58;17.35;;;6.30;99.90;;;;;;4981139;28;21067;-74
2022/11/28 01:51:31;;;;;;;31.23;16.48;;;6.30;99.90;;;;;;4969821;28;20054;-74
2022/11/28 01:53:57;;;;;;;24.00;16.00;;;6.30;99.90;;;;;;4969980;28;20046;-74
2022/11/28 01:56:27;;;;;;;23.45;15.88;;;6.30;99.90;;;;;;4968565;28;20745;-74
2022/11/28 01:59:01;;;;;;;25.33;17.83;;;6.30;99.90;;;;;;4969691;28;20042;-74
2022/11/28 02:01:26;;;;;;;24.02;17.50;;;6.30;99.90;;;;;;4967652;28;20081;-74
2022/11/28 02:03:54;;;;;;;23.27;17.75;;;6.30;99.90;;;;;;4969724;28;20125;-74
2022/11/28 02:06:22;;;;;;;23.08;17.42;;;6.30;99.90;;;;;;4969131;28;20061;-74
2022/11/28 02:08:52;;;;;;;22.77;16.33;;;6.30;99.90;;;;;;4968966;28;20055;-74
2022/11/28 02:11:43;;;;;;;24.65;17.00;;;6.30;99.90;;;;;;4966101;28;20054;-74
2022/11/28 02:14:27;;;;;;;23.55;17.17;;;6.30;99.90;;;;;;4969623;28;20403;-74
2022/11/28 02:16:55;;;;;;;25.05;18.02;;;6.40;99.90;;;;;;4967453;28;20047;-74
2022/11/28 02:19:38;;;;;;;20.85;16.17;;;6.30;99.90;;;;;;4968796;28;20089;-74
2022/11/28 02:22:16;;;;;;;23.65;17.58;;;6.30;99.90;;;;;;4968176;28;20113;-74
2022/11/28 02:24:47;;;;;;;24.70;17.15;;;6.30;99.90;;;;;;4968400;28;20043;-74
2022/11/28 02:27:37;;;;;;;21.88;15.45;;;6.40;99.90;;;;;;4969550;28;20536;-74
2022/11/28 02:30:20;;;;;;;24.75;17.13;;;6.40;99.90;;;;;;4969531;28;20066;-75
2022/11/28 02:32:52;;;;;;;26.33;16.75;;;6.40;99.90;;;;;;4967467;28;20510;-74
2022/11/28 02:35:27;;;;;;;24.60;17.42;;;6.40;99.90;;;;;;4968979;28;20138;-74
2022/11/28 02:38:08;;;;;;;24.50;16.23;;;6.40;99.90;;;;;;4966434;28;20082;-74
2022/11/28 02:40:39;;;;;;;23.13;15.85;;;6.40;99.90;;;;;;4966146;28;20109;-75
2022/11/28 02:43:23;;;;;;;25.98;18.63;;;6.40;99.90;;;;;;4968075;28;20082;-74
2022/11/28 02:46:19;;;;;;;28.58;18.60;;;6.40;99.90;;;;;;4967130;28;20058;-74
2022/11/28 02:49:02;;;;;;;23.80;18.45;;;6.40;99.90;;;;;;4979091;28;20582;-74
2022/11/28 02:51:28;;;;;;;22.00;16.20;;;6.40;99.90;;;;;;5002251;28;20487;-74
2022/11/28 02:53:55;;;;;;;25.88;17.85;;;6.40;99.90;;;;;;4987369;28;20077;-74
2022/11/28 02:56:24;;;;;;;34.53;19.17;;;6.40;99.90;;;;;;4986268;28;20558;-74
2022/11/28 02:58:49;;;;;;;25.35;17.08;;;6.40;99.90;;;;;;4988139;28;20050;-74
2022/11/28 03:01:41;;;;;;;27.92;17.92;;;6.40;99.90;;;;;;4987404;28;20125;-75
2022/11/28 03:04:17;;;;;;;23.40;18.98;;;6.50;99.90;;;;;;4974295;28;20466;-75
2022/11/28 03:07:06;;;;;;;29.95;21.25;;;6.40;99.90;;;;;;4982684;28;20050;-75
2022/11/28 03:10:11;;;;;;;31.55;18.85;;;6.50;99.90;;;;;;4985488;28;20061;-75
2022/11/28 03:12:46;;;;;;;25.83;17.52;;;6.50;99.90;;;;;;4985423;28;20836;-75
2022/11/28 03:15:16;;;;;;;26.55;17.98;;;6.50;99.90;;;;;;5001205;28;20046;-76
2022/11/28 03:17:46;;;;;;;30.35;20.48;;;6.50;99.90;;;;;;4986407;28;20069;-75
2022/11/28 03:20:42;;;;;;;26.38;18.67;;;6.50;99.90;;;;;;4986205;28;20061;-74
2022/11/28 03:23:21;;;;;;;38.03;19.23;;;6.50;99.90;;;;;;4988209;28;20046;-75
2022/11/28 03:25:54;;;;;;;28.35;19.52;;;6.50;99.90;;;;;;4987069;28;20050;-75
2022/11/28 03:28:39;;;;;;;34.65;19.33;;;6.60;99.90;;;;;;4969634;28;20054;-74
2022/11/28 03:31:15;;;;;;;30.70;19.75;;;6.50;99.90;;;;;;4986601;28;20046;-75
2022/11/28 03:33:47;;;;;;;27.35;18.98;;;6.60;99.90;;;;;;4983770;28;20890;-75
2022/11/28 03:36:21;;;;;;;28.50;18.52;;;6.60;99.90;;;;;;4984527;28;20177;-75
2022/11/28 03:39:00;;;;;;;24.45;19.73;;;6.60;99.90;;;;;;4974903;28;20050;-75
2022/11/28 03:41:54;;;;;;;32.30;20.90;;;6.60;99.90;;;;;;4987551;28;20058;-76
2022/11/28 03:44:30;;;;;;;27.23;20.17;;;6.60;99.90;;;;;;4958016;28;20125;-76
2022/11/28 03:46:59;;;;;;;34.08;23.08;;;6.60;99.90;;;;;;4986269;28;20050;-76
2022/11/28 03:49:30;;;;;;;29.83;20.33;;;6.60;99.90;;;;;;4987274;28;20101;-76
2022/11/28 03:52:06;;;;;;;27.33;21.23;;;6.70;99.90;;;;;;5001651;28;20046;-76
2022/11/28 03:54:51;;;;;;;30.70;21.75;;;6.70;99.90;;;;;;4982431;28;20039;-76
2022/11/28 03:57:33;;;;;;;28.48;22.52;;;6.70;99.90;;;;;;5003154;28;20125;-76
2022/11/28 04:00:03;;;;;;;30.65;22.80;;;6.70;99.90;;;;;;4986363;28;20107;-76
2022/11/28 04:03:07;;;;;;;34.22;22.67;;;6.70;99.90;;;;;;4997449;28;20046;-76
2022/11/28 04:05:58;;;;;;;29.67;21.92;;;6.80;99.90;;;;;;4966462;28;20515;-76
2022/11/28 04:08:29;;;;;;;34.35;22.95;;;6.80;99.90;;;;;;4978741;28;20074;-76
2022/11/28 04:11:21;;;;;;;33.17;23.63;;;6.80;99.90;;;;;;4978130;28;20050;-76
2022/11/28 04:14:03;;;;;;;32.50;23.85;;;6.80;99.90;;;;;;4984918;28;20050;-76
2022/11/28 04:16:52;;;;;;;33.42;24.30;;;6.80;99.90;;;;;;4986033;28;20046;-76
2022/11/28 04:19:36;;;;;;;38.85;26.42;;;6.80;99.90;;;;;;4984190;28;20126;-76
2022/11/28 04:22:12;;;;;;;33.08;25.42;;;6.90;99.90;;;;;;4987145;28;20646;-76
2022/11/28 04:24:44;;;;;;;39.78;26.88;;;6.90;99.90;;;;;;4986131;28;20129;-76
2022/11/28 04:27:13;;;;;;;35.55;27.83;;;6.90;99.90;;;;;;4983557;28;20527;-75
2022/11/28 04:29:46;;;;;;;41.45;29.35;;;6.90;99.90;;;;;;4987052;28;20050;-76
2022/11/28 04:32:14;;;;;;;37.60;27.08;;;6.90;99.90;;;;;;4986717;28;20042;-76
2022/11/28 04:34:43;;;;;;;38.75;28.90;;;6.90;99.90;;;;;;4986130;28;20070;-76
2022/11/28 04:37:13;;;;;;;42.72;29.05;;;6.90;99.90;;;;;;4986038;28;20054;-75
2022/11/28 04:39:43;;;;;;;43.83;28.77;;;7.00;99.90;;;;;;4986634;28;20813;-76
2022/11/28 04:42:48;;;;;;;54.28;33.83;;;7.00;99.90;;;;;;4984159;28;20061;-75
2022/11/28 04:45:36;;;;;;;53.72;34.85;;;7.00;99.90;;;;;;4911564;29;20086;-75
2022/11/28 04:48:02;;;;;;;51.15;33.60;;;7.00;99.90;;;;;;4985609;28;20089;-75
2022/11/28 04:50:36;;;;;;;47.53;34.47;;;7.00;99.90;;;;;;4986477;28;20050;-75
2022/11/28 04:53:34;;;;;;;52.28;34.58;;;7.00;99.90;;;;;;4985722;28;20046;-75
2022/11/28 04:56:05;;;;;;;50.22;35.42;;;7.00;99.90;;;;;;4984685;28;20062;-75
2022/11/28 04:58:41;;;;;;;61.17;37.25;;;7.10;99.90;;;;;;4982042;28;20042;-75
2022/11/28 05:01:10;;;;;;;53.35;36.38;;;7.10;99.90;;;;;;4980131;28;20053;-75
2022/11/28 05:03:38;;;;;;;56.90;38.42;;;7.10;99.90;;;;;;4983608;28;20053;-75
2022/11/28 05:06:04;;;;;;;50.28;35.67;;;7.10;99.90;;;;;;4989866;28;20046;-75
2022/11/28 05:08:30;;;;;;;53.25;37.17;;;7.10;99.90;;;;;;4988232;28;20139;-75
2022/11/28 05:10:56;;;;;;;58.40;40.80;;;7.20;99.90;;;;;;4991040;28;20140;-75
2022/11/28 05:13:22;;;;;;;56.22;38.50;;;7.20;99.90;;;;;;4990577;28;20065;-76
2022/11/28 05:15:48;;;;;;;61.60;38.92;;;7.20;99.90;;;;;;4987159;28;20840;-75
2022/11/28 05:18:13;;;;;;;59.05;37.95;;;7.20;99.90;;;;;;4989039;28;20903;-75
2022/11/28 05:20:40;;;;;;;48.78;36.05;;;7.20;99.90;;;;;;4990371;28;20042;-75
2022/11/28 05:23:06;;;;;;;53.70;38.70;;;7.20;99.90;;;;;;5006084;28;20507;-75
2022/11/28 05:25:32;;;;;;;54.55;38.08;;;7.30;99.90;;;;;;4989145;28;20056;-75
2022/11/28 05:27:57;;;;;;;57.42;38.58;;;7.30;99.90;;;;;;4981305;28;20082;-75
2022/11/28 05:30:23;;;;;;;56.58;37.80;;;7.20;99.90;;;;;;4990235;28;20046;-75
2022/11/28 05:32:49;;;;;;;56.30;38.00;;;7.30;99.90;;;;;;4984783;28;20727;-75
2022/11/28 05:35:15;;;;;;;56.05;36.47;;;7.30;99.90;;;;;;4988985;28;20054;-74
2022/11/28 05:37:40;;;;;;;51.92;37.53;;;7.30;99.90;;;;;;4989527;28;20050;-75
2022/11/28 05:40:06;;;;;;;61.05;40.15;;;7.30;99.90;;;;;;4987776;28;20050;-74
2022/11/28 05:42:34;;;;;;;65.43;42.95;;;7.30;99.90;;;;;;4986655;28;20054;-75
2022/11/28 05:45:00;;;;;;;62.75;40.67;;;7.40;99.90;;;;;;4988197;28;20499;-75
2022/11/28 05:47:28;;;;;;;55.63;38.50;;;7.40;99.90;;;;;;4989262;28;20057;-74
2022/11/28 05:49:53;;;;;;;74.68;43.13;;;7.40;99.90;;;;;;4988597;28;20845;-74
2022/11/28 05:52:19;;;;;;;62.92;45.25;;;7.40;99.90;;;;;;4989839;28;20065;-74
2022/11/28 05:54:45;;;;;;;60.75;40.47;;;7.40;99.90;;;;;;4988302;28;20053;-74
2022/11/28 05:57:10;;;;;;;69.43;44.70;;;7.40;99.90;;;;;;4988360;28;20094;-75
2022/11/28 05:59:36;;;;;;;60.95;42.17;;;7.40;99.90;;;;;;4988503;28;20042;-75
2022/11/28 06:02:02;;;;;;;55.55;39.53;;;7.40;99.90;;;;;;4989198;28;20068;-74
2022/11/28 06:04:28;;;;;;;69.22;44.03;;;7.40;99.90;;;;;;4988682;28;20177;-75
2022/11/28 06:06:53;;;;;;;68.20;44.42;;;7.40;99.90;;;;;;4988969;28;20054;-75
2022/11/28 06:09:20;;;;;;;65.57;44.17;;;7.40;99.90;;;;;;4988671;28;20046;-75
2022/11/28 06:11:47;;;;;;;95.20;44.22;;;7.50;99.90;;;;;;4988792;28;20456;-75
2022/11/28 06:14:13;;;;;;;63.38;43.38;;;7.50;99.90;;;;;;4986975;28;20042;-75
2022/11/28 06:16:41;;;;;;;71.35;44.88;;;7.50;99.90;;;;;;4985686;28;20046;-75
2022/11/28 06:19:06;;;;;;;61.72;42.80;;;7.50;99.90;;;;;;4989183;28;20381;-75
2022/11/28 06:21:32;;;;;;;58.55;42.75;;;7.50;99.90;;;;;;4984370;28;20065;-75
2022/11/28 06:23:59;;;;;;;63.25;41.20;;;7.50;99.90;;;;;;4984359;28;20081;-75
2022/11/28 06:26:26;;;;;;;58.80;40.75;;;7.50;99.90;;;;;;5005431;28;20133;-75
2022/11/28 06:28:54;;;;;;;69.47;45.22;;;7.50;99.90;;;;;;4988399;28;20050;-75
2022/11/28 06:31:22;;;;;;;69.65;46.58;;;7.50;99.90;;;;;;4985649;28;20042;-75
2022/11/28 06:33:48;;;;;;;;;;;7.50;99.90;;;;;;4988804;28;20057;-75
2022/11/28 06:36:16;;;;;;;65.22;41.70;;;7.50;99.90;;;;;;4987459;28;19929;-76
2022/11/28 06:38:41;;;;;;;60.22;40.47;;;7.50;99.90;;;;;;5005227;28;20054;-76
2022/11/28 06:41:12;;;;;;;64.75;41.60;;;7.50;99.90;;;;;;5004930;28;20559;-75
2022/11/28 06:43:38;;;;;;;59.88;40.58;;;7.50;99.90;;;;;;5004710;28;20069;-76
2022/11/28 06:46:05;;;;;;;57.75;39.22;;;7.50;99.90;;;;;;4988475;28;20455;-75
2022/11/28 06:48:31;;;;;;;50.60;36.35;;;7.50;99.90;;;;;;4987881;28;20077;-75
2022/11/28 06:51:05;;;;;;;54.90;37.83;;;7.50;99.90;;;;;;4984475;28;20086;-75
2022/11/28 06:53:31;;;;;;;49.78;35.53;;;7.50;99.90;;;;;;4975943;28;20050;-75
2022/11/28 06:55:57;;;;;;;50.95;36.03;;;7.50;99.90;;;;;;5004118;28;20121;-75
2022/11/28 06:58:23;;;;;;;50.80;34.40;;;7.50;99.90;;;;;;4987754;28;20133;-75
2022/11/28 07:00:50;;;;;;;48.83;34.78;;;7.50;99.90;;;;;;4987315;28;20492;-75
2022/11/28 07:03:16;;;;;;;43.40;32.90;;;7.50;99.90;;;;;;4981753;28;20122;-75
2022/11/28 07:05:41;;;;;;;47.08;32.28;;;7.50;99.90;;;;;;4987495;28;20050;-75
2022/11/28 07:08:08;;;;;;;46.95;32.35;;;7.50;99.90;;;;;;4985581;28;20050;-75
2022/11/28 07:10:35;;;;;;;45.45;32.25;;;7.50;99.90;;;;;;5004117;28;20069;-75
2022/11/28 07:13:00;;;;;;;47.55;32.65;;;7.50;99.90;;;;;;4987921;28;20129;-75
2022/11/28 07:15:26;;;;;;;41.78;30.52;;;7.60;99.90;;;;;;4987487;28;20149;-75
2022/11/28 07:17:52;;;;;;;42.10;29.73;;;7.60;99.90;;;;;;4987544;28;20053;-75
2022/11/28 07:20:19;;;;;;;38.35;29.58;;;7.60;99.90;;;;;;5003307;28;20038;-75
2022/11/28 07:22:47;;;;;;;44.78;31.50;;;7.60;99.90;;;;;;4984261;28;20054;-75
2022/11/28 07:25:13;;;;;;;42.17;30.05;;;7.60;99.90;;;;;;4988041;28;20149;-75
2022/11/28 07:27:41;;;;;;;45.15;30.90;;;7.60;99.90;;;;;;4987070;28;20539;-75
2022/11/28 07:30:08;;;;;;;43.78;30.05;;;7.60;99.90;;;;;;5002137;28;20046;-75
2022/11/28 07:32:34;;;;;;;48.05;29.38;;;7.60;99.90;;;;;;4977971;28;20053;-75
2022/11/28 07:34:59;;;;;;;38.30;27.42;;;7.60;99.90;;;;;;4988062;28;20044;-75
2022/11/28 07:37:26;;;;;;;36.75;27.55;;;7.60;99.90;;;;;;4987855;28;20046;-75
2022/11/28 07:39:52;;;;;;;34.85;26.27;;;7.60;99.90;;;;;;4984492;28;20510;-75
2022/11/28 07:42:17;;;;;;;31.02;25.15;;;7.60;99.90;;;;;;4985388;28;20042;-75
2022/11/28 07:44:44;;;;;;;36.05;25.52;;;7.60;99.90;;;;;;4979419;28;20050;-75
2022/11/28 07:47:09;;;;;;;30.83;24.00;;;7.60;99.90;;;;;;4986920;28;20054;-74
2022/11/28 07:49:35;;;;;;;36.80;25.50;;;7.60;99.90;;;;;;4987010;28;20419;-75
2022/11/28 07:52:01;;;;;;;35.65;26.00;;;7.60;99.90;;;;;;4984969;28;20054;-75
2022/11/28 07:54:26;;;;;;;31.27;23.90;;;7.60;99.90;;;;;;4983613;28;20117;-76
2022/11/28 07:56:52;;;;;;;34.10;24.95;;;7.60;99.90;;;;;;4985872;28;20050;-75
2022/11/28 07:59:17;;;;;;;37.17;26.98;;;7.60;99.90;;;;;;4986295;28;20050;-75
2022/11/28 08:01:43;;;;;;;35.60;24.27;;;7.60;99.90;;;;;;4984937;28;20046;-74
2022/11/28 08:04:09;;;;;;;37.63;25.73;;;7.60;99.90;;;;;;4986881;28;20073;-74
2022/11/28 08:06:40;;;;;;;34.35;25.23;;;7.60;99.90;;;;;;4986580;28;20050;-74
2022/11/28 08:09:06;;;;;;;32.63;23.17;;;7.60;99.90;;;;;;4986328;28;20050;-74
2022/11/28 08:11:33;;;;;;;37.30;26.15;;;7.60;99.90;;;;;;4977898;28;20562;-75
2022/11/28 08:13:59;;;;;;;30.45;22.75;;;7.60;99.90;;;;;;4974382;28;20051;-75
2022/11/28 08:16:27;;;;;;;32.55;23.95;;;7.60;99.90;;;;;;4983028;28;20047;-74
2022/11/28 08:18:54;;;;;;;36.83;24.70;;;7.60;99.90;;;;;;4986731;28;20121;-75
2022/11/28 08:21:25;;;;;;;33.63;24.52;;;7.60;99.90;;;;;;5003700;28;20100;-75
2022/11/28 08:23:52;;;;;;;36.05;25.98;;;7.70;99.90;;;;;;5003089;28;20109;-74
2022/11/28 08:26:21;;;;;;;35.15;24.33;;;7.70;99.90;;;;;;5003682;28;20073;-74
2022/11/28 08:28:49;;;;;;;32.38;25.13;;;7.70;99.90;;;;;;5001741;28;20527;-74
2022/11/28 08:31:19;;;;;;;34.97;24.10;;;7.70;99.90;;;;;;4985624;28;20081;-74
2022/11/28 08:33:46;;;;;;;37.67;26.60;;;7.70;99.90;;;;;;4985348;28;20056;-75
2022/11/28 08:36:13;;;;;;;36.87;25.23;;;7.70;99.90;;;;;;4984111;28;20042;-77
2022/11/28 08:38:40;;;;;;;35.30;24.77;;;7.70;99.90;;;;;;4986052;28;20771;-77
2022/11/28 08:41:09;;;;;;;35.75;25.00;;;7.70;99.90;;;;;;4989235;28;20070;-76
2022/11/28 08:43:36;;;;;;;38.78;25.77;;;7.70;99.90;;;;;;4989973;28;20058;-76
2022/11/28 08:46:03;;;;;;;31.08;24.23;;;7.70;99.90;;;;;;4982793;28;20340;-76
2022/11/28 08:48:29;;;;;;;36.70;25.65;;;7.70;99.90;;;;;;4987444;28;20062;-76
2022/11/28 08:50:55;;;;;;;31.45;24.25;;;7.70;99.90;;;;;;4989678;28;20074;-76
2022/11/28 08:53:21;;;;;;;37.25;25.63;;;7.70;99.90;;;;;;4990175;28;20064;-76
2022/11/28 08:55:46;;;;;;;34.67;24.55;;;7.70;99.90;;;;;;4989232;28;20089;-77
2022/11/28 08:58:13;;;;;;;36.25;26.50;;;7.70;99.90;;;;;;4988082;28;20108;-77
2022/11/28 09:00:41;;;;;;;32.08;24.60;;;7.70;99.90;;;;;;4990096;28;20056;-77
2022/11/28 09:03:07;;;;;;;38.17;26.98;;;7.70;99.90;;;;;;4988136;28;20046;-77
2022/11/28 09:05:33;;;;;;;33.33;24.58;;;7.80;99.90;;;;;;4973982;28;20419;-76
2022/11/28 09:07:59;;;;;;;38.08;26.88;;;7.80;99.90;;;;;;4991366;28;20050;-77
2022/11/28 09:10:24;;;;;;;36.22;25.45;;;7.80;99.90;;;;;;4989187;28;20066;-77
2022/11/28 09:12:51;;;;;;;39.92;27.20;;;7.80;99.90;;;;;;4989986;28;20050;-77
2022/11/28 09:15:17;;;;;;;38.53;25.42;;;7.70;99.90;;;;;;4985683;28;20058;-78
2022/11/28 09:17:44;;;;;;;35.83;25.75;;;7.80;99.90;;;;;;4989826;28;20073;-78
2022/11/28 09:20:10;;;;;;;39.75;27.95;;;7.80;99.90;;;;;;4973427;28;20053;-77
2022/11/28 09:22:36;;;;;;;39.72;27.92;;;7.80;99.90;;;;;;4989598;28;20046;-78
2022/11/28 09:25:01;;;;;;;37.58;25.42;;;7.80;99.90;;;;;;4988532;28;20040;-78
2022/11/28 09:27:27;;;;;;;37.58;26.30;;;7.80;99.90;;;;;;4989438;28;20052;-78
2022/11/28 09:29:53;;;;;;;37.55;26.42;;;7.80;99.90;;;;;;4990007;28;20057;-78
2022/11/28 09:32:18;;;;;;;36.45;25.83;;;7.80;99.90;;;;;;4988404;28;20046;-78
2022/11/28 09:34:44;;;;;;;34.00;23.70;;;7.90;99.90;;;;;;4982333;28;20058;-77
2022/11/28 09:37:10;;;;;;;34.63;25.58;;;7.80;99.90;;;;;;4989328;28;20489;-77
2022/11/28 09:39:35;;;;;;;30.77;23.30;;;7.80;99.90;;;;;;4992582;28;20045;-77
2022/11/28 09:42:04;;;;;;;32.70;24.45;;;7.80;99.90;;;;;;4988674;28;20046;-75
2022/11/28 09:44:40;;;;;;;36.38;25.17;;;7.90;99.90;;;;;;4989487;28;20124;-76
2022/11/28 09:47:16;;;;;;;36.53;23.75;;;7.90;99.90;;;;;;4987842;28;20058;-75
2022/11/28 09:49:54;;;;;;;30.50;23.27;;;7.90;99.90;;;;;;4989116;28;20059;-75
2022/11/28 09:52:31;;;;;;;34.70;23.27;;;7.90;99.90;;;;;;4989731;28;20137;-75
2022/11/28 09:55:25;;;;;;;35.53;23.85;;;7.90;99.90;;;;;;4986868;28;20081;-75
2022/11/28 09:57:52;;;;;;;36.83;23.23;;;7.90;99.90;;;;;;4955125;28;20046;-75
2022/11/28 10:00:27;;;;;;;35.53;25.73;;;7.90;99.90;;;;;;4991362;28;20076;-74
2022/11/28 10:03:12;;;;;;;31.42;22.52;;;7.90;99.90;;;;;;4993953;28;20042;-76
2022/11/28 10:05:43;;;;;;;30.67;23.63;;;8.00;99.90;;;;;;4988025;28;20042;-79
2022/11/28 10:08:27;;;;;;;31.75;22.52;;;7.90;99.90;;;;;;4988340;28;20054;-78
2022/11/28 10:11:14;;;;;;;30.27;21.75;;;7.90;99.90;;;;;;4987854;28;20042;-79
2022/11/28 10:13:59;;;;;;;31.83;22.53;;;8.00;99.90;;;;;;4987677;28;20057;-79
2022/11/28 10:16:40;;;;;;;33.17;22.92;;;7.90;99.90;;;;;;4988912;28;20424;-79
2022/11/28 10:19:12;;;;;;;32.78;24.02;;;8.00;99.90;;;;;;4988455;28;20034;-80
2022/11/28 10:21:49;;;;;;;32.42;23.83;;;8.00;99.90;;;;;;4987537;28;20050;-79
2022/11/28 10:24:18;;;;;;;30.20;22.00;;;7.90;99.90;;;;;;5005390;28;20545;-80
2022/11/28 10:26:47;;;;;;;29.42;21.60;;;7.90;99.90;;;;;;4988327;28;20429;-79
2022/11/28 10:29:39;;;;;;;33.63;22.40;;;8.00;99.90;;;;;;4988550;28;20046;-79
2022/11/28 10:32:06;;;;;;;32.65;23.50;;;8.00;99.90;;;;;;4988583;28;20082;-79
2022/11/28 10:34:42;;;;;;;32.15;24.63;;;8.00;99.90;;;;;;4987939;28;20046;-80
2022/11/28 10:37:20;;;;;;;35.25;24.98;;;8.00;99.90;;;;;;4987332;28;20054;-80
2022/11/28 10:39:49;;;;;;;30.70;23.13;;;8.00;99.90;;;;;;4990298;28;20061;-80
2022/11/28 10:42:25;;;;;;;35.65;24.60;;;8.00;99.90;;;;;;4992229;28;20054;-79
2022/11/28 10:44:51;;;;;;;31.52;22.17;;;8.00;99.90;;;;;;4989192;28;20053;-79
2022/11/28 10:47:35;;;;;;;31.95;23.52;;;8.10;99.90;;;;;;4987950;28;20046;-79
2022/11/28 10:50:29;;;;;;;29.30;22.90;;;8.00;99.90;;;;;;4987585;28;20058;-79
2022/11/28 10:53:01;;;;;;;32.67;24.80;;;8.10;99.90;;;;;;4985009;28;20049;-79
2022/11/28 10:55:44;;;;;;;32.13;22.73;;;8.10;99.90;;;;;;4987658;28;20050;-77
2022/11/28 10:58:23;;;;;;;28.95;21.88;;;8.10;99.90;;;;;;4985013;28;20050;-78
2022/11/28 11:00:53;;;;;;;32.40;23.20;;;8.10;99.90;;;;;;4959212;28;20043;-77
2022/11/28 11:03:25;;;;;;;34.05;24.13;;;8.10;99.90;;;;;;4987852;28;20042;-77
2022/11/28 11:05:51;;;;;;;31.35;23.50;;;8.10;99.90;;;;;;5001754;28;20085;-76
2022/11/28 11:08:20;;;;;;;28.98;21.52;;;8.10;99.90;;;;;;4989615;28;20558;-75
2022/11/28 11:11:05;;;;;;;34.30;23.23;;;8.10;99.90;;;;;;4987169;28;20125;-76
2022/11/28 11:14:08;;;;;;;33.90;23.40;;;8.10;99.90;;;;;;4996429;28;20050;-74
2022/11/28 11:16:55;;;;;;;38.40;24.92;;;8.10;99.90;;;;;;4955374;28;20500;-74
2022/11/28 11:19:39;;;;;;;30.33;22.85;;;8.10;99.90;;;;;;4979538;28;20109;-74
2022/11/28 11:22:19;;;;;;;35.25;24.08;;;8.10;99.90;;;;;;4985766;28;20058;-74
2022/11/28 11:25:04;;;;;;;35.75;25.67;;;8.10;99.90;;;;;;4985916;28;20046;-75
2022/11/28 11:27:31;;;;;;;29.95;21.77;;;8.10;99.90;;;;;;4984410;28;20047;-74
2022/11/28 11:29:57;;;;;;;30.88;23.33;;;8.10;99.90;;;;;;4985395;28;20047;-74
2022/11/28 11:32:28;;;;;;;36.90;22.88;;;8.10;99.90;;;;;;4982903;28;20046;-74
2022/11/28 11:34:56;;;;;;;31.08;22.73;;;8.20;99.90;;;;;;4987370;28;20506;-74
2022/11/28 11:37:36;;;;;;;29.42;22.33;;;8.20;99.90;;;;;;4987093;28;20496;-75
2022/11/28 11:40:16;;;;;;;37.35;23.90;;;8.20;99.90;;;;;;4986632;28;20705;-74
2022/11/28 11:42:57;;;;;;;34.45;24.48;;;8.20;99.90;;;;;;4986745;28;20046;-74
2022/11/28 11:45:28;;;;;;;30.05;23.02;;;8.20;99.90;;;;;;4976088;28;20108;-75
2022/11/28 11:47:53;;;;;;;34.70;24.67;;;8.20;99.90;;;;;;5003886;28;20406;-74
2022/11/28 11:50:22;;;;;;;32.95;22.70;;;8.20;99.90;;;;;;4986343;28;20050;-74
2022/11/28 11:53:13;;;;;;;30.08;22.50;;;8.20;99.90;;;;;;4986468;28;20057;-75
2022/11/28 11:55:52;;;;;;;34.05;24.45;;;8.20;99.90;;;;;;4989738;28;20045;-75
2022/11/28 11:58:24;;;;;;;35.55;23.95;;;8.20;99.90;;;;;;5005324;28;20453;-76
2022/11/28 12:00:55;;;;;;;31.80;22.48;;;8.20;99.90;;;;;;5005665;28;20053;-76
2022/11/28 12:03:27;;;;;;;29.50;21.77;;;8.20;99.90;;;;;;4989464;28;20387;-76
2022/11/28 12:06:04;;;;;;;30.10;21.92;;;8.30;99.90;;;;;;4976584;28;20054;-76
2022/11/28 12:08:39;;;;;;;31.10;22.38;;;8.30;99.90;;;;;;4988011;28;20085;-76
2022/11/28 12:11:15;;;;;;;32.53;22.35;;;8.20;99.90;;;;;;4973482;28;20042;-76
2022/11/28 12:13:40;;;;;;;29.98;22.80;;;8.30;99.90;;;;;;4985140;28;20109;-76
2022/11/28 12:16:34;;;;;;;32.83;23.00;;;8.20;99.90;;;;;;4976467;28;20042;-76
2022/11/28 12:19:39;;;;;;;32.25;22.13;;;8.20;99.90;;;;;;4987753;28;20038;-76
2022/11/28 12:22:34;;;;;;;31.65;24.33;;;8.20;99.90;;;;;;4963943;28;20157;-76
2022/11/28 12:25:06;;;;;;;30.42;22.35;;;8.20;99.90;;;;;;4982980;28;20039;-75
2022/11/28 12:27:32;;;;;;;33.13;24.08;;;8.20;99.90;;;;;;5005729;28;20213;-75
2022/11/28 12:30:35;;;;;;;33.38;23.15;;;8.20;99.90;;;;;;4983037;28;20839;-76
2022/11/28 12:33:19;;;;;;;34.83;22.58;;;8.30;99.90;;;;;;4983476;28;20045;-77
2022/11/28 12:36:07;;;;;;;29.48;22.60;;;8.30;99.90;;;;;;4999524;28;20527;-78
2022/11/28 12:38:46;;;;;;;29.83;22.15;;;8.30;99.90;;;;;;4994496;28;20515;-77
2022/11/28 12:41:41;;;;;;;31.60;23.63;;;8.20;99.90;;;;;;4983899;28;20435;-77
2022/11/28 12:44:18;;;;;;;36.95;23.73;;;8.30;99.90;;;;;;4972361;28;20054;-78
2022/11/28 12:47:23;;;;;;;37.45;27.58;;;8.30;99.90;;;;;;4985473;28;20082;-77
2022/11/28 12:49:59;;;;;;;30.75;22.67;;;8.30;99.90;;;;;;5002823;28;20088;-77
2022/11/28 12:53:06;;;;;;;33.22;24.05;;;8.20;99.90;;;;;;4986921;28;20490;-78
2022/11/28 12:56:02;;;;;;;29.35;23.20;;;8.30;99.90;;;;;;4970744;28;20133;-78
2022/11/28 12:59:00;;;;;;;30.55;22.13;;;8.30;99.90;;;;;;4980664;28;20054;-78
2022/11/28 13:01:58;;;;;;;33.67;22.35;;;8.30;99.90;;;;;;4986597;28;20053;-78
2022/11/28 13:04:43;;;;;;;28.08;21.90;;;8.30;99.90;;;;;;5002736;28;20526;-78